• Join FlightAware (Why Join?)
  • Login
  • US Flag 
06:53AM EST


 

Airport Tracker/Info


-or-


 

Live Flight TrackerFlight Track Log ✈ SWA224 ✈ 04-May-2013 ✈ KOAK - KPHX

Flight Track Log - Related Links

Times and Time Zones

All times are in EDT time to prevent confusion due to time zone crossing. See the SWA224 flight status page for this flight to view local times or setup timezone preferences in your user account.

Time Position Orientation Groundspeed Altitude Reporting Facility
EDT Latitude Longitude Course Direction KTS MPH feet Rate Location/Type
11:17AM 37.7167 -122.2500 310° West 149 171 1,300  Level Northern Cal TRACON
11:18AM 37.7500 -122.3000 310° West 206 237 3,900 3,360 Climbing Northern Cal TRACON
11:19AM 37.7667 -122.3667 288° West 233 268 7,700 3,060 Climbing Northern Cal TRACON
11:20AM 37.7500 -122.4667 258° West 295 339 10,100 2,940 Climbing Northern Cal TRACON
11:21AM 37.6667 -122.5167 205° Southwest 350 403 13,600 3,660 Climbing Northern Cal TRACON
11:23AM 37.5636 -122.4881 168° South 369 425 18,400 3,120 Climbing Oakland Center
11:24AM 37.4981 -122.3883 130° Southeast 371 427 20,800 2,640 Climbing Oakland Center
11:25AM 37.4292 -122.2847 130° Southeast 383 441 23,800 2,760 Climbing Oakland Center
11:26AM 37.3558 -122.1706 129° Southeast 410 472 26,500 2,520 Climbing Oakland Center
11:27AM 37.2775 -122.0539 130° Southeast 432 497 29,000 2,160 Climbing Oakland Center
11:28AM 37.1947 -121.9303 130° Southeast 452 520 31,000 2,160 Climbing Oakland Center
11:29AM 37.0967 -121.7822 130° Southeast 472 543 33,500 2,220 Climbing Oakland Center
11:30AM 37.0042 -121.6536 132° Southeast 478 550 35,600 1,860 Climbing Oakland Center
11:31AM 36.9172 -121.5236 130° Southeast 486 559 37,400 1,980 Climbing Oakland Center
11:32AM 36.8339 -121.3928 128° Southeast 483 556 39,700 1,740 Climbing Oakland Center
11:33AM 36.7511 -121.2794 132° Southeast 463 533 41,000 600 Climbing Oakland Center
11:34AM 36.6700 -121.1553 129° Southeast 460 529 41,000  Level Oakland Center
11:35AM 36.5844 -121.0344 131° Southeast 463 533 41,000  Level Oakland Center
11:36AM 36.5011 -120.9117 130° Southeast 464 534 41,000  Level Oakland Center
11:37AM 36.4167 -120.7908 131° Southeast 463 533 41,000  Level Oakland Center
11:38AM 36.3328 -120.6686 130° Southeast 463 533 41,000  Level Oakland Center
11:39AM 36.2311 -120.5250 131° Southeast 460 529 41,000  Level Oakland Center
11:40AM 36.1458 -120.3978 130° Southeast 477 549 41,000  Level Oakland Center
11:41AM 36.0617 -120.2775 131° Southeast 465 535 41,000  Level Oakland Center
11:42AM 35.9778 -120.1614 132° Southeast 451 519 41,000  Level Oakland Center
11:43AM 35.8928 -120.0431 132° Southeast 452 520 41,000  Level Oakland Center
11:44AM 35.8075 -119.9206 131° Southeast 462 532 41,000  Level Oakland Center
11:45AM 35.7194 -119.7972 131° Southeast 473 544 41,000  Level Oakland Center
11:46AM 35.6322 -119.6753 131° Southeast 472 543 41,000  Level Oakland Center
11:47AM 35.5456 -119.5553 132° Southeast 469 540 41,000  Level Oakland Center
11:48AM 35.4600 -119.4347 131° Southeast 468 539 41,000  Level Oakland Center
11:49AM 35.4086 -119.3636 132° Southeast 465 535 41,000  Level Los Angeles Center
11:50AM 35.3472 -119.2206 118° Southeast 472 543 41,000  Level Los Angeles Center
11:51AM 35.2828 -119.0419 114° Southeast 479 551 41,000  Level Los Angeles Center
11:52AM 35.2283 -118.8933 114° Southeast 479 551 41,000  Level Los Angeles Center
11:53AM 35.1728 -118.7444 115° Southeast 480 552 41,000  Level Los Angeles Center
11:54AM 35.1025 -118.5672 116° Southeast 481 554 41,000  Level Los Angeles Center
11:55AM 35.0594 -118.4506 114° Southeast 480 552 41,000  Level Los Angeles Center
11:56AM 34.9933 -118.2722 114° Southeast 482 555 41,000  Level Los Angeles Center
11:57AM 34.9367 -118.1242 115° Southeast 477 549 41,000  Level Los Angeles Center
11:58AM 34.8714 -117.9531 115° Southeast 476 548 41,000  Level Los Angeles Center
11:59AM 34.8256 -117.8375 116° Southeast 478 550 41,000  Level Los Angeles Center
12:00PM 34.7597 -117.6611 114° Southeast 486 559 41,000  Level Los Angeles Center
12:02PM 34.6908 -117.4853 115° Southeast 489 563 41,000  Level Los Angeles Center
12:03PM 34.6347 -117.3389 115° Southeast 486 559 41,000  Level Los Angeles Center
12:04PM 34.5564 -117.1356 115° Southeast 479 551 41,000  Level Los Angeles Center
12:05PM 34.4997 -116.9919 116° Southeast 478 550 41,000  Level Los Angeles Center
12:06PM 34.4431 -116.8475 115° Southeast 478 550 41,000  Level Los Angeles Center
12:07PM 34.3869 -116.7014 115° Southeast 481 554 41,000  Level Los Angeles Center
12:08PM 34.3292 -116.5583 116° Southeast 477 549 41,000  Level Los Angeles Center
12:09PM 34.2739 -116.4111 114° Southeast 482 555 41,000  Level Los Angeles Center
12:10PM 34.2036 -116.2406 116° Southeast 475 547 41,000  Level Los Angeles Center
12:11PM 34.1456 -116.0961 116° Southeast 477 549 41,000  Level Los Angeles Center
12:12PM 34.0900 -115.9636 117° Southeast 475 547 41,000  Level Los Angeles Center
12:13PM 34.0064 -115.7575 116° Southeast 487 560 41,000 -300 Level Los Angeles Center
12:14PM 33.9475 -115.6117 116° Southeast 484 557 40,400 -780 Descending Los Angeles Center
12:15PM 33.8889 -115.4683 116° Southeast 477 549 39,400 -960 Descending Los Angeles Center
12:16PM 33.8306 -115.3272 116° Southeast 472 543 38,500 -720 Descending Los Angeles Center
12:17PM 33.7717 -115.1883 117° Southeast 466 536 38,000 -300 Descending Los Angeles Center
12:18PM 33.7150 -115.0492 116° Southeast 464 534 38,000  Level Los Angeles Center
12:19PM 33.6575 -114.9106 116° Southeast 464 534 38,000  Level Los Angeles Center
12:20PM 33.5892 -114.7414 116° Southeast 468 539 38,000 -1,200 Level Los Angeles Center
12:22PM 33.5608 -114.5883 102° East 471 542 35,600 -3,000 Descending Los Angeles Center
12:22PM 33.5392 -114.4753 103° East 465 535 32,500 -3,480 Descending Albuquerque Center
12:23PM 33.5111 -114.3186 102° East 476 548 29,200 -3,000 Descending Albuquerque Center
12:24PM 33.4819 -114.1689 103° East 467 537 26,400 -2,100 Descending Albuquerque Center
12:25PM 33.4533 -114.0244 103° East 451 519 25,000 -720 Descending Albuquerque Center
12:26PM 33.4242 -113.8822 104° East 443 510 25,000  Level Albuquerque Center
12:27PM 33.3878 -113.7100 104° East 446 513 25,000 -540 Level Albuquerque Center
12:29PM 33.3594 -113.5669 103° East 444 511 23,900 -1,500 Descending Albuquerque Center
12:30PM 33.3308 -113.4264 104° East 437 503 21,900 -2,100 Descending Albuquerque Center
12:31PM 33.3044 -113.2983 104° East 408 470 19,700 -2,340 Descending Albuquerque Center
12:32PM 33.2786 -113.1742 104° East 391 450 17,200 -2,100 Descending Albuquerque Center
12:33PM 33.2747 -113.0517 92° East 377 434 15,400 -1,860 Descending Albuquerque Center
12:34PM 33.2781 -112.9358 88° East 355 409 13,400 -1,800 Descending Albuquerque Center
12:35PM 33.2806 -112.8244 88° East 342 394 11,800 -1,620 Descending Albuquerque Center
12:36PM 33.3200 -112.7133 67° East 309 356 10,100 -1,080 Descending Albuquerque Center
12:37PM 33.3525 -112.6278 66° East 288 331 9,600 -840 Descending Albuquerque Center
12:38PM 33.3822 -112.5525 65° Northeast 272 313 8,400 -960 Descending Albuquerque Center
12:39PM 33.4100 -112.4764 66° East 253 291 7,700 -720 Descending Albuquerque Center
12:40PM 33.4294 -112.4033 72° East 235 270 7,000 -960 Descending Albuquerque Center
12:41PM 33.4303 -112.3081 89° East 239 275 5,800 -1,080 Descending Albuquerque Center
12:42PM 33.4383 -112.2294 83° East 239 275 4,900 -1,080 Descending Albuquerque Center
12:43PM 33.4411 -112.1658 87° East 194 223 3,600 -1,200 Descending Albuquerque Center
12:44PM 33.4406 -112.1094 91° East 174 200 2,500 -960 Descending Albuquerque Center
12:45PM 33.4408 -112.0644 90° East 140 161 1,700 -720 Descending Albuquerque Center
12:46PM 33.4400 -112.0225 91° East 131 151 1,100 -600 Descending Albuquerque Center
12:48PM 33.4343 -112.0116 90° East  Level Estimated